sensor_id;sensor_type;location;lat;lon;timestamp;P1;durP1;ratioP1;P2;durP2;ratioP2
2191;SDS011;1102;49.718;11.902;2023-03-30T00:01:15;6.80;;;5.17;;
2191;SDS011;1102;49.718;11.902;2023-03-30T00:03:43;8.30;;;7.00;;
2191;SDS011;1102;49.718;11.902;2023-03-30T00:06:11;5.00;;;4.60;;
2191;SDS011;1102;49.718;11.902;2023-03-30T00:08:46;6.30;;;5.70;;
2191;SDS011;1102;49.718;11.902;2023-03-30T00:11:14;6.30;;;5.70;;
2191;SDS011;1102;49.718;11.902;2023-03-30T00:13:42;6.17;;;4.73;;
2191;SDS011;1102;49.718;11.902;2023-03-30T00:16:11;7.20;;;5.80;;
2191;SDS011;1102;49.718;11.902;2023-03-30T00:18:39;6.60;;;6.10;;
2191;SDS011;1102;49.718;11.902;2023-03-30T00:21:10;8.10;;;6.63;;
2191;SDS011;1102;49.718;11.902;2023-03-30T00:23:37;7.63;;;6.07;;
2191;SDS011;1102;49.718;11.902;2023-03-30T00:26:05;6.27;;;5.70;;
2191;SDS011;1102;49.718;11.902;2023-03-30T00:28:32;8.00;;;6.63;;
2191;SDS011;1102;49.718;11.902;2023-03-30T00:31:00;6.03;;;5.50;;
2191;SDS011;1102;49.718;11.902;2023-03-30T00:33:27;7.70;;;6.53;;
2191;SDS011;1102;49.718;11.902;2023-03-30T00:36:10;7.43;;;6.73;;
2191;SDS011;1102;49.718;11.902;2023-03-30T00:38:37;8.50;;;6.77;;
2191;SDS011;1102;49.718;11.902;2023-03-30T00:41:04;9.20;;;6.73;;
2191;SDS011;1102;49.718;11.902;2023-03-30T00:43:32;7.07;;;6.37;;
2191;SDS011;1102;49.718;11.902;2023-03-30T00:45:59;9.67;;;8.30;;
2191;SDS011;1102;49.718;11.902;2023-03-30T00:48:27;7.13;;;6.43;;
2191;SDS011;1102;49.718;11.902;2023-03-30T00:50:58;9.23;;;6.77;;
2191;SDS011;1102;49.718;11.902;2023-03-30T00:53:31;7.00;;;6.30;;
2191;SDS011;1102;49.718;11.902;2023-03-30T00:56:01;7.50;;;6.50;;
2191;SDS011;1102;49.718;11.902;2023-03-30T00:58:30;7.97;;;7.17;;
2191;SDS011;1102;49.718;11.902;2023-03-30T01:00:57;7.33;;;6.40;;
2191;SDS011;1102;49.718;11.902;2023-03-30T01:05:58;8.17;;;7.30;;
2191;SDS011;1102;49.718;11.902;2023-03-30T01:08:28;11.20;;;7.23;;
2191;SDS011;1102;49.718;11.902;2023-03-30T01:10:58;9.17;;;7.30;;
2191;SDS011;1102;49.718;11.902;2023-03-30T01:13:27;7.93;;;7.13;;
2191;SDS011;1102;49.718;11.902;2023-03-30T01:24:38;7.67;;;6.80;;
2191;SDS011;1102;49.718;11.902;2023-03-30T01:39:26;7.60;;;6.07;;
2191;SDS011;1102;49.718;11.902;2023-03-30T01:42:40;7.97;;;7.17;;
2191;SDS011;1102;49.718;11.902;2023-03-30T01:45:20;7.93;;;6.33;;
2191;SDS011;1102;49.718;11.902;2023-03-30T01:50:28;12.70;;;7.73;;
2191;SDS011;1102;49.718;11.902;2023-03-30T01:53:01;12.37;;;8.00;;
2191;SDS011;1102;49.718;11.902;2023-03-30T01:55:40;7.80;;;7.07;;
2191;SDS011;1102;49.718;11.902;2023-03-30T01:58:13;7.70;;;7.00;;
2191;SDS011;1102;49.718;11.902;2023-03-30T02:00:47;7.73;;;6.77;;
2191;SDS011;1102;49.718;11.902;2023-03-30T02:03:17;9.83;;;6.97;;
2191;SDS011;1102;49.718;11.902;2023-03-30T02:05:49;6.90;;;6.23;;
2191;SDS011;1102;49.718;11.902;2023-03-30T02:08:20;10.23;;;7.90;;
2191;SDS011;1102;49.718;11.902;2023-03-30T02:10:51;8.93;;;7.43;;
2191;SDS011;1102;49.718;11.902;2023-03-30T02:13:20;8.50;;;7.37;;
2191;SDS011;1102;49.718;11.902;2023-03-30T02:15:50;6.63;;;6.03;;
2191;SDS011;1102;49.718;11.902;2023-03-30T02:18:22;7.97;;;7.17;;
2191;SDS011;1102;49.718;11.902;2023-03-30T02:20:49;6.93;;;6.23;;
2191;SDS011;1102;49.718;11.902;2023-03-30T02:23:17;7.40;;;6.70;;
2191;SDS011;1102;49.718;11.902;2023-03-30T02:25:46;9.33;;;7.30;;
2191;SDS011;1102;49.718;11.902;2023-03-30T02:28:16;8.23;;;7.43;;
2191;SDS011;1102;49.718;11.902;2023-03-30T02:30:43;7.43;;;6.73;;
2191;SDS011;1102;49.718;11.902;2023-03-30T02:33:15;7.37;;;6.67;;
2191;SDS011;1102;49.718;11.902;2023-03-30T02:38:32;7.37;;;6.60;;
2191;SDS011;1102;49.718;11.902;2023-03-30T02:44:48;7.80;;;7.03;;
2191;SDS011;1102;49.718;11.902;2023-03-30T02:47:01;8.00;;;6.57;;
2191;SDS011;1102;49.718;11.902;2023-03-30T02:49:36;9.00;;;7.40;;
2191;SDS011;1102;49.718;11.902;2023-03-30T02:52:09;7.20;;;6.50;;
2191;SDS011;1102;49.718;11.902;2023-03-30T02:54:49;8.20;;;7.37;;
2191;SDS011;1102;49.718;11.902;2023-03-30T03:03:33;7.77;;;6.93;;
2191;SDS011;1102;49.718;11.902;2023-03-30T03:06:03;7.33;;;6.57;;
2191;SDS011;1102;49.718;11.902;2023-03-30T03:08:41;9.90;;;7.87;;
2191;SDS011;1102;49.718;11.902;2023-03-30T03:11:12;7.47;;;5.83;;
2191;SDS011;1102;49.718;11.902;2023-03-30T03:13:39;7.80;;;6.70;;
2191;SDS011;1102;49.718;11.902;2023-03-30T03:16:07;10.27;;;7.63;;
2191;SDS011;1102;49.718;11.902;2023-03-30T03:18:50;11.33;;;7.40;;
2191;SDS011;1102;49.718;11.902;2023-03-30T03:21:17;10.00;;;6.77;;
2191;SDS011;1102;49.718;11.902;2023-03-30T03:23:44;9.27;;;7.80;;
2191;SDS011;1102;49.718;11.902;2023-03-30T03:26:16;6.90;;;5.67;;
2191;SDS011;1102;49.718;11.902;2023-03-30T03:28:43;8.30;;;7.30;;
2191;SDS011;1102;49.718;11.902;2023-03-30T03:31:10;6.73;;;6.00;;
2191;SDS011;1102;49.718;11.902;2023-03-30T03:33:39;7.63;;;6.77;;
2191;SDS011;1102;49.718;11.902;2023-03-30T03:36:12;7.63;;;6.50;;
2191;SDS011;1102;49.718;11.902;2023-03-30T03:38:49;7.37;;;6.60;;
2191;SDS011;1102;49.718;11.902;2023-03-30T03:41:16;7.20;;;6.50;;
2191;SDS011;1102;49.718;11.902;2023-03-30T03:43:43;10.40;;;6.80;;
2191;SDS011;1102;49.718;11.902;2023-03-30T03:46:11;7.63;;;6.67;;
2191;SDS011;1102;49.718;11.902;2023-03-30T03:48:38;9.93;;;6.83;;
2191;SDS011;1102;49.718;11.902;2023-03-30T03:51:05;7.50;;;6.80;;
2191;SDS011;1102;49.718;11.902;2023-03-30T03:53:34;10.57;;;6.00;;
2191;SDS011;1102;49.718;11.902;2023-03-30T03:56:04;7.23;;;6.53;;
2191;SDS011;1102;49.718;11.902;2023-03-30T03:58:32;7.80;;;7.00;;
2191;SDS011;1102;49.718;11.902;2023-03-30T04:00:59;7.73;;;5.93;;
2191;SDS011;1102;49.718;11.902;2023-03-30T04:03:28;9.10;;;6.20;;
2191;SDS011;1102;49.718;11.902;2023-03-30T04:05:59;6.80;;;5.57;;
2191;SDS011;1102;49.718;11.902;2023-03-30T04:08:28;9.67;;;7.77;;
2191;SDS011;1102;49.718;11.902;2023-03-30T04:11:07;7.10;;;6.43;;
2191;SDS011;1102;49.718;11.902;2023-03-30T04:13:46;11.20;;;6.83;;
2191;SDS011;1102;49.718;11.902;2023-03-30T04:16:45;10.77;;;7.40;;
2191;SDS011;1102;49.718;11.902;2023-03-30T04:19:52;6.53;;;5.83;;
2191;SDS011;1102;49.718;11.902;2023-03-30T04:22:33;7.10;;;6.00;;
2191;SDS011;1102;49.718;11.902;2023-03-30T04:25:23;7.40;;;6.70;;
2191;SDS011;1102;49.718;11.902;2023-03-30T04:28:30;8.27;;;7.40;;
2191;SDS011;1102;49.718;11.902;2023-03-30T04:31:08;7.50;;;6.73;;
2191;SDS011;1102;49.718;11.902;2023-03-30T04:33:36;9.97;;;7.70;;
2191;SDS011;1102;49.718;11.902;2023-03-30T04:36:35;9.73;;;6.80;;
2191;SDS011;1102;49.718;11.902;2023-03-30T04:39:32;9.20;;;6.20;;
2191;SDS011;1102;49.718;11.902;2023-03-30T04:42:30;8.53;;;7.10;;
2191;SDS011;1102;49.718;11.902;2023-03-30T04:45:17;12.40;;;8.23;;
2191;SDS011;1102;49.718;11.902;2023-03-30T04:48:01;7.60;;;6.50;;
2191;SDS011;1102;49.718;11.902;2023-03-30T04:50:47;8.03;;;6.73;;
2191;SDS011;1102;49.718;11.902;2023-03-30T04:53:49;8.80;;;8.00;;
2191;SDS011;1102;49.718;11.902;2023-03-30T04:56:16;6.90;;;6.30;;
2191;SDS011;1102;49.718;11.902;2023-03-30T04:59:03;7.83;;;6.00;;
2191;SDS011;1102;49.718;11.902;2023-03-30T05:01:56;8.83;;;7.33;;
2191;SDS011;1102;49.718;11.902;2023-03-30T05:04:43;8.90;;;6.63;;
2191;SDS011;1102;49.718;11.902;2023-03-30T05:07:42;7.90;;;6.53;;
2191;SDS011;1102;49.718;11.902;2023-03-30T05:10:26;4.90;;;4.07;;
2191;SDS011;1102;49.718;11.902;2023-03-30T05:12:53;8.13;;;7.00;;
2191;SDS011;1102;49.718;11.902;2023-03-30T05:15:39;7.60;;;6.87;;
2191;SDS011;1102;49.718;11.902;2023-03-30T05:18:24;9.80;;;7.40;;
2191;SDS011;1102;49.718;11.902;2023-03-30T05:21:09;7.73;;;6.73;;
2191;SDS011;1102;49.718;11.902;2023-03-30T05:24:03;10.37;;;6.87;;
2191;SDS011;1102;49.718;11.902;2023-03-30T05:27:02;7.37;;;6.67;;
2191;SDS011;1102;49.718;11.902;2023-03-30T05:29:47;8.07;;;6.33;;
2191;SDS011;1102;49.718;11.902;2023-03-30T05:32:33;9.20;;;7.80;;
2191;SDS011;1102;49.718;11.902;2023-03-30T05:35:18;17.73;;;8.10;;
2191;SDS011;1102;49.718;11.902;2023-03-30T05:38:11;8.93;;;8.03;;
2191;SDS011;1102;49.718;11.902;2023-03-30T05:40:56;10.60;;;8.10;;
2191;SDS011;1102;49.718;11.902;2023-03-30T05:43:48;14.97;;;9.47;;
2191;SDS011;1102;49.718;11.902;2023-03-30T05:46:31;10.33;;;9.27;;
2191;SDS011;1102;49.718;11.902;2023-03-30T05:49:31;10.43;;;9.37;;
2191;SDS011;1102;49.718;11.902;2023-03-30T05:52:06;13.57;;;9.93;;
2191;SDS011;1102;49.718;11.902;2023-03-30T05:54:47;11.30;;;10.10;;
2191;SDS011;1102;49.718;11.902;2023-03-30T05:57:28;9.37;;;8.10;;
2191;SDS011;1102;49.718;11.902;2023-03-30T06:00:19;14.30;;;9.70;;
2191;SDS011;1102;49.718;11.902;2023-03-30T06:02:58;16.40;;;10.00;;
2191;SDS011;1102;49.718;11.902;2023-03-30T06:05:29;17.10;;;10.17;;
2191;SDS011;1102;49.718;11.902;2023-03-30T06:07:59;16.53;;;11.00;;
2191;SDS011;1102;49.718;11.902;2023-03-30T06:10:26;18.90;;;10.27;;
2191;SDS011;1102;49.718;11.902;2023-03-30T06:12:54;21.83;;;12.73;;
2191;SDS011;1102;49.718;11.902;2023-03-30T06:15:36;13.10;;;11.27;;
2191;SDS011;1102;49.718;11.902;2023-03-30T06:18:06;18.13;;;11.30;;
2191;SDS011;1102;49.718;11.902;2023-03-30T06:20:37;11.30;;;9.37;;
2191;SDS011;1102;49.718;11.902;2023-03-30T06:23:04;11.17;;;9.97;;
2191;SDS011;1102;49.718;11.902;2023-03-30T06:25:31;11.33;;;8.43;;
2191;SDS011;1102;49.718;11.902;2023-03-30T06:27:58;15.30;;;8.77;;
2191;SDS011;1102;49.718;11.902;2023-03-30T06:30:25;9.27;;;8.30;;
2191;SDS011;1102;49.718;11.902;2023-03-30T06:32:55;16.20;;;10.00;;
2191;SDS011;1102;49.718;11.902;2023-03-30T06:35:24;12.37;;;9.27;;
2191;SDS011;1102;49.718;11.902;2023-03-30T06:37:52;11.50;;;8.30;;
2191;SDS011;1102;49.718;11.902;2023-03-30T06:40:18;10.33;;;8.67;;
2191;SDS011;1102;49.718;11.902;2023-03-30T06:42:48;13.23;;;11.90;;
2191;SDS011;1102;49.718;11.902;2023-03-30T06:45:41;14.10;;;9.27;;
2191;SDS011;1102;49.718;11.902;2023-03-30T06:48:08;14.90;;;11.17;;
2191;SDS011;1102;49.718;11.902;2023-03-30T06:50:37;10.33;;;9.23;;
2191;SDS011;1102;49.718;11.902;2023-03-30T06:53:12;11.43;;;9.40;;
2191;SDS011;1102;49.718;11.902;2023-03-30T06:55:42;10.43;;;8.90;;
2191;SDS011;1102;49.718;11.902;2023-03-30T06:58:16;10.97;;;8.60;;
2191;SDS011;1102;49.718;11.902;2023-03-30T07:00:43;13.10;;;10.87;;
2191;SDS011;1102;49.718;11.902;2023-03-30T07:03:36;13.43;;;10.07;;
2191;SDS011;1102;49.718;11.902;2023-03-30T07:06:23;14.13;;;11.53;;
2191;SDS011;1102;49.718;11.902;2023-03-30T07:08:50;14.93;;;9.60;;
2191;SDS011;1102;49.718;11.902;2023-03-30T07:11:21;15.47;;;10.83;;
2191;SDS011;1102;49.718;11.902;2023-03-30T07:13:49;12.50;;;9.80;;
2191;SDS011;1102;49.718;11.902;2023-03-30T07:16:16;14.50;;;10.27;;
2191;SDS011;1102;49.718;11.902;2023-03-30T07:18:42;8.83;;;7.90;;
2191;SDS011;1102;49.718;11.902;2023-03-30T07:21:09;10.90;;;9.13;;
2191;SDS011;1102;49.718;11.902;2023-03-30T07:23:38;8.40;;;7.57;;
2191;SDS011;1102;49.718;11.902;2023-03-30T07:26:06;15.43;;;8.87;;
2191;SDS011;1102;49.718;11.902;2023-03-30T07:28:39;15.40;;;8.60;;
2191;SDS011;1102;49.718;11.902;2023-03-30T07:31:07;13.67;;;9.30;;
2191;SDS011;1102;49.718;11.902;2023-03-30T07:33:38;19.70;;;9.57;;
2191;SDS011;1102;49.718;11.902;2023-03-30T07:36:06;15.50;;;9.37;;
2191;SDS011;1102;49.718;11.902;2023-03-30T07:38:35;16.50;;;8.80;;
2191;SDS011;1102;49.718;11.902;2023-03-30T07:41:06;10.90;;;9.20;;
2191;SDS011;1102;49.718;11.902;2023-03-30T07:43:34;19.00;;;9.90;;
2191;SDS011;1102;49.718;11.902;2023-03-30T07:46:01;12.83;;;10.43;;
2191;SDS011;1102;49.718;11.902;2023-03-30T07:48:34;12.63;;;9.00;;
2191;SDS011;1102;49.718;11.902;2023-03-30T07:51:01;14.03;;;9.40;;
2191;SDS011;1102;49.718;11.902;2023-03-30T07:53:36;21.03;;;9.87;;
2191;SDS011;1102;49.718;11.902;2023-03-30T07:56:12;16.07;;;11.03;;
2191;SDS011;1102;49.718;11.902;2023-03-30T07:58:43;15.90;;;9.30;;
2191;SDS011;1102;49.718;11.902;2023-03-30T08:01:10;17.30;;;9.70;;
2191;SDS011;1102;49.718;11.902;2023-03-30T08:03:58;10.63;;;8.70;;
2191;SDS011;1102;49.718;11.902;2023-03-30T08:06:27;12.40;;;9.43;;
2191;SDS011;1102;49.718;11.902;2023-03-30T08:08:57;16.77;;;9.90;;
2191;SDS011;1102;49.718;11.902;2023-03-30T08:11:24;15.77;;;10.43;;
2191;SDS011;1102;49.718;11.902;2023-03-30T08:13:50;14.07;;;10.77;;
2191;SDS011;1102;49.718;11.902;2023-03-30T08:16:17;13.83;;;11.07;;
2191;SDS011;1102;49.718;11.902;2023-03-30T08:18:44;15.50;;;9.80;;
2191;SDS011;1102;49.718;11.902;2023-03-30T08:21:12;14.17;;;10.10;;
2191;SDS011;1102;49.718;11.902;2023-03-30T08:23:39;55.23;;;44.47;;
2191;SDS011;1102;49.718;11.902;2023-03-30T08:26:06;34.63;;;22.60;;
2191;SDS011;1102;49.718;11.902;2023-03-30T08:28:33;31.27;;;25.43;;
2191;SDS011;1102;49.718;11.902;2023-03-30T08:31:07;31.50;;;22.83;;
2191;SDS011;1102;49.718;11.902;2023-03-30T08:33:36;18.60;;;12.53;;
2191;SDS011;1102;49.718;11.902;2023-03-30T08:36:02;17.13;;;13.00;;
2191;SDS011;1102;49.718;11.902;2023-03-30T08:38:29;13.73;;;11.30;;
2191;SDS011;1102;49.718;11.902;2023-03-30T08:40:56;14.43;;;10.60;;
2191;SDS011;1102;49.718;11.902;2023-03-30T08:46:13;19.20;;;12.73;;
2191;SDS011;1102;49.718;11.902;2023-03-30T08:48:43;10.77;;;9.63;;
2191;SDS011;1102;49.718;11.902;2023-03-30T08:51:17;11.97;;;9.03;;
2191;SDS011;1102;49.718;11.902;2023-03-30T08:53:54;13.23;;;8.17;;
2191;SDS011;1102;49.718;11.902;2023-03-30T08:56:25;16.23;;;9.43;;
2191;SDS011;1102;49.718;11.902;2023-03-30T09:01:51;8.93;;;8.10;;
2191;SDS011;1102;49.718;11.902;2023-03-30T09:04:39;9.20;;;8.23;;
2191;SDS011;1102;49.718;11.902;2023-03-30T09:07:17;11.87;;;9.00;;
2191;SDS011;1102;49.718;11.902;2023-03-30T09:09:47;8.87;;;7.87;;
2191;SDS011;1102;49.718;11.902;2023-03-30T09:14:45;9.63;;;7.00;;
2191;SDS011;1102;49.718;11.902;2023-03-30T09:17:32;8.60;;;7.30;;
2191;SDS011;1102;49.718;11.902;2023-03-30T09:20:07;7.53;;;6.20;;
2191;SDS011;1102;49.718;11.902;2023-03-30T09:22:44;9.83;;;7.83;;
2191;SDS011;1102;49.718;11.902;2023-03-30T09:25:11;6.80;;;5.87;;
2191;SDS011;1102;49.718;11.902;2023-03-30T09:27:45;9.30;;;7.40;;
2191;SDS011;1102;49.718;11.902;2023-03-30T09:30:22;25.10;;;22.17;;
2191;SDS011;1102;49.718;11.902;2023-03-30T09:32:58;14.77;;;13.33;;
2191;SDS011;1102;49.718;11.902;2023-03-30T09:35:33;13.53;;;11.17;;
2191;SDS011;1102;49.718;11.902;2023-03-30T09:38:11;13.57;;;12.27;;
2191;SDS011;1102;49.718;11.902;2023-03-30T09:46:04;14.10;;;8.70;;
2191;SDS011;1102;49.718;11.902;2023-03-30T09:48:37;6.70;;;6.00;;
2191;SDS011;1102;49.718;11.902;2023-03-30T09:53:42;8.07;;;5.87;;
2191;SDS011;1102;49.718;11.902;2023-03-30T09:56:25;10.20;;;5.90;;
2191;SDS011;1102;49.718;11.902;2023-03-30T09:58:53;6.63;;;6.00;;
2191;SDS011;1102;49.718;11.902;2023-03-30T10:01:21;10.90;;;6.70;;
2191;SDS011;1102;49.718;11.902;2023-03-30T10:04:07;9.77;;;5.87;;
2191;SDS011;1102;49.718;11.902;2023-03-30T10:06:43;8.47;;;7.53;;
2191;SDS011;1102;49.718;11.902;2023-03-30T10:09:12;7.50;;;6.23;;
2191;SDS011;1102;49.718;11.902;2023-03-30T10:14:11;10.20;;;7.60;;
2191;SDS011;1102;49.718;11.902;2023-03-30T10:16:56;15.43;;;9.57;;
2191;SDS011;1102;49.718;11.902;2023-03-30T10:19:24;8.93;;;6.67;;
2191;SDS011;1102;49.718;11.902;2023-03-30T10:21:53;10.93;;;7.07;;
2191;SDS011;1102;49.718;11.902;2023-03-30T10:26:51;8.83;;;6.33;;
2191;SDS011;1102;49.718;11.902;2023-03-30T10:29:21;9.63;;;6.50;;
2191;SDS011;1102;49.718;11.902;2023-03-30T10:31:53;9.10;;;7.03;;
2191;SDS011;1102;49.718;11.902;2023-03-30T10:34:32;10.23;;;5.43;;
2191;SDS011;1102;49.718;11.902;2023-03-30T10:37:08;6.10;;;5.40;;
2191;SDS011;1102;49.718;11.902;2023-03-30T10:39:39;5.40;;;4.90;;
2191;SDS011;1102;49.718;11.902;2023-03-30T10:42:10;12.40;;;6.57;;
2191;SDS011;1102;49.718;11.902;2023-03-30T10:44:44;4.47;;;3.97;;
2191;SDS011;1102;49.718;11.902;2023-03-30T10:47:19;5.93;;;3.83;;
2191;SDS011;1102;49.718;11.902;2023-03-30T10:50:32;4.40;;;3.60;;
2191;SDS011;1102;49.718;11.902;2023-03-30T11:03:26;4.27;;;3.30;;
2191;SDS011;1102;49.718;11.902;2023-03-30T11:06:00;3.70;;;2.90;;
2191;SDS011;1102;49.718;11.902;2023-03-30T11:08:33;7.17;;;3.10;;
2191;SDS011;1102;49.718;11.902;2023-03-30T11:11:03;4.53;;;4.10;;
2191;SDS011;1102;49.718;11.902;2023-03-30T11:13:35;6.10;;;3.30;;
2191;SDS011;1102;49.718;11.902;2023-03-30T11:18:50;5.63;;;2.70;;
2191;SDS011;1102;49.718;11.902;2023-03-30T11:26:41;5.10;;;1.90;;
2191;SDS011;1102;49.718;11.902;2023-03-30T11:29:33;7.37;;;2.23;;
2191;SDS011;1102;49.718;11.902;2023-03-30T11:35:38;3.93;;;2.00;;
2191;SDS011;1102;49.718;11.902;2023-03-30T11:38:03;3.63;;;1.90;;
2191;SDS011;1102;49.718;11.902;2023-03-30T11:40:40;6.57;;;6.07;;
2191;SDS011;1102;49.718;11.902;2023-03-30T11:43:29;2.60;;;1.80;;
2191;SDS011;1102;49.718;11.902;2023-03-30T11:48:37;3.30;;;3.00;;
2191;SDS011;1102;49.718;11.902;2023-03-30T11:54:15;3.70;;;2.40;;
2191;SDS011;1102;49.718;11.902;2023-03-30T11:56:47;2.70;;;1.70;;
2191;SDS011;1102;49.718;11.902;2023-03-30T11:59:43;6.20;;;2.30;;
2191;SDS011;1102;49.718;11.902;2023-03-30T12:05:43;2.93;;;2.73;;
2191;SDS011;1102;49.718;11.902;2023-03-30T12:11:20;5.87;;;2.90;;
2191;SDS011;1102;49.718;11.902;2023-03-30T12:13:50;6.13;;;4.10;;
2191;SDS011;1102;49.718;11.902;2023-03-30T12:16:27;5.80;;;2.60;;
2191;SDS011;1102;49.718;11.902;2023-03-30T12:19:10;6.10;;;3.63;;
2191;SDS011;1102;49.718;11.902;2023-03-30T12:24:37;3.43;;;2.77;;
2191;SDS011;1102;49.718;11.902;2023-03-30T12:27:13;5.27;;;2.87;;
2191;SDS011;1102;49.718;11.902;2023-03-30T12:29:43;6.30;;;3.27;;
2191;SDS011;1102;49.718;11.902;2023-03-30T12:32:28;3.13;;;2.90;;
2191;SDS011;1102;49.718;11.902;2023-03-30T12:34:56;5.70;;;3.40;;
2191;SDS011;1102;49.718;11.902;2023-03-30T12:37:33;7.03;;;3.23;;
2191;SDS011;1102;49.718;11.902;2023-03-30T12:40:13;4.93;;;3.30;;
2191;SDS011;1102;49.718;11.902;2023-03-30T12:42:51;4.83;;;3.03;;
2191;SDS011;1102;49.718;11.902;2023-03-30T12:45:34;5.00;;;3.43;;
2191;SDS011;1102;49.718;11.902;2023-03-30T12:56:36;4.63;;;3.00;;
2191;SDS011;1102;49.718;11.902;2023-03-30T12:59:31;6.23;;;3.37;;
2191;SDS011;1102;49.718;11.902;2023-03-30T13:02:32;7.53;;;4.30;;
2191;SDS011;1102;49.718;11.902;2023-03-30T13:05:18;4.77;;;3.63;;
2191;SDS011;1102;49.718;11.902;2023-03-30T13:07:49;5.93;;;3.27;;
2191;SDS011;1102;49.718;11.902;2023-03-30T13:13:02;6.70;;;4.50;;
2191;SDS011;1102;49.718;11.902;2023-03-30T13:15:47;3.80;;;3.40;;
2191;SDS011;1102;49.718;11.902;2023-03-30T13:34:06;3.10;;;2.90;;
2191;SDS011;1102;49.718;11.902;2023-03-30T13:36:54;12.50;;;5.00;;
2191;SDS011;1102;49.718;11.902;2023-03-30T13:45:25;5.77;;;2.90;;
2191;SDS011;1102;49.718;11.902;2023-03-30T13:50:56;4.33;;;3.13;;
2191;SDS011;1102;49.718;11.902;2023-03-30T13:53:26;3.20;;;2.90;;
2191;SDS011;1102;49.718;11.902;2023-03-30T13:55:56;7.17;;;4.00;;
2191;SDS011;1102;49.718;11.902;2023-03-30T13:58:26;5.20;;;3.10;;
2191;SDS011;1102;49.718;11.902;2023-03-30T14:00:58;4.20;;;3.07;;
2191;SDS011;1102;49.718;11.902;2023-03-30T14:05:57;4.80;;;3.60;;
2191;SDS011;1102;49.718;11.902;2023-03-30T14:08:33;7.97;;;2.60;;
2191;SDS011;1102;49.718;11.902;2023-03-30T14:11:03;4.33;;;3.07;;
2191;SDS011;1102;49.718;11.902;2023-03-30T14:13:39;3.93;;;3.53;;
2191;SDS011;1102;49.718;11.902;2023-03-30T14:16:06;7.20;;;2.47;;
2191;SDS011;1102;49.718;11.902;2023-03-30T14:18:37;3.97;;;3.67;;
2191;SDS011;1102;49.718;11.902;2023-03-30T14:21:13;5.37;;;3.37;;
2191;SDS011;1102;49.718;11.902;2023-03-30T14:23:48;5.63;;;3.33;;
2191;SDS011;1102;49.718;11.902;2023-03-30T14:26:21;3.70;;;2.50;;
2191;SDS011;1102;49.718;11.902;2023-03-30T14:28:56;7.23;;;2.87;;
2191;SDS011;1102;49.718;11.902;2023-03-30T14:31:25;5.20;;;3.10;;
2191;SDS011;1102;49.718;11.902;2023-03-30T14:33:54;5.90;;;3.23;;
2191;SDS011;1102;49.718;11.902;2023-03-30T14:36:21;3.80;;;3.40;;
2191;SDS011;1102;49.718;11.902;2023-03-30T14:38:49;4.70;;;2.20;;
2191;SDS011;1102;49.718;11.902;2023-03-30T14:44:10;6.60;;;2.57;;
2191;SDS011;1102;49.718;11.902;2023-03-30T14:49:33;5.77;;;3.10;;
2191;SDS011;1102;49.718;11.902;2023-03-30T14:52:06;3.20;;;2.90;;
2191;SDS011;1102;49.718;11.902;2023-03-30T14:54:33;2.90;;;2.50;;
2191;SDS011;1102;49.718;11.902;2023-03-30T14:57:03;4.43;;;2.33;;
2191;SDS011;1102;49.718;11.902;2023-03-30T14:59:32;3.73;;;2.43;;
2191;SDS011;1102;49.718;11.902;2023-03-30T15:02:05;6.17;;;4.00;;
2191;SDS011;1102;49.718;11.902;2023-03-30T15:04:46;6.23;;;2.87;;
2191;SDS011;1102;49.718;11.902;2023-03-30T15:07:15;5.97;;;2.80;;
2191;SDS011;1102;49.718;11.902;2023-03-30T15:09:43;3.80;;;2.37;;
2191;SDS011;1102;49.718;11.902;2023-03-30T15:12:18;5.60;;;2.87;;
2191;SDS011;1102;49.718;11.902;2023-03-30T15:14:49;4.10;;;2.37;;
2191;SDS011;1102;49.718;11.902;2023-03-30T15:17:20;7.77;;;2.53;;
2191;SDS011;1102;49.718;11.902;2023-03-30T15:19:53;7.73;;;2.97;;
2191;SDS011;1102;49.718;11.902;2023-03-30T15:25:15;4.10;;;2.60;;
2191;SDS011;1102;49.718;11.902;2023-03-30T15:28:04;4.17;;;2.43;;
2191;SDS011;1102;49.718;11.902;2023-03-30T15:30:37;5.70;;;2.43;;
2191;SDS011;1102;49.718;11.902;2023-03-30T15:33:16;3.33;;;1.90;;
2191;SDS011;1102;49.718;11.902;2023-03-30T15:36:11;5.90;;;2.57;;
2191;SDS011;1102;49.718;11.902;2023-03-30T15:38:45;6.50;;;2.17;;
2191;SDS011;1102;49.718;11.902;2023-03-30T15:41:19;3.77;;;2.60;;
2191;SDS011;1102;49.718;11.902;2023-03-30T15:44:02;2.40;;;2.10;;
2191;SDS011;1102;49.718;11.902;2023-03-30T15:46:36;3.57;;;2.17;;
2191;SDS011;1102;49.718;11.902;2023-03-30T15:49:03;4.93;;;2.50;;
2191;SDS011;1102;49.718;11.902;2023-03-30T15:51:34;4.90;;;1.70;;
2191;SDS011;1102;49.718;11.902;2023-03-30T15:54:11;3.90;;;2.30;;
2191;SDS011;1102;49.718;11.902;2023-03-30T15:59:14;5.10;;;2.13;;
2191;SDS011;1102;49.718;11.902;2023-03-30T16:01:47;3.60;;;2.50;;
2191;SDS011;1102;49.718;11.902;2023-03-30T16:04:20;5.10;;;2.43;;
2191;SDS011;1102;49.718;11.902;2023-03-30T16:06:49;2.17;;;1.50;;
2191;SDS011;1102;49.718;11.902;2023-03-30T16:09:17;8.40;;;1.40;;
2191;SDS011;1102;49.718;11.902;2023-03-30T16:11:44;3.10;;;1.50;;
2191;SDS011;1102;49.718;11.902;2023-03-30T16:14:17;4.43;;;1.50;;
2191;SDS011;1102;49.718;11.902;2023-03-30T16:16:46;4.03;;;2.33;;
2191;SDS011;1102;49.718;11.902;2023-03-30T16:19:14;1.97;;;1.60;;
2191;SDS011;1102;49.718;11.902;2023-03-30T16:21:43;3.17;;;1.73;;
2191;SDS011;1102;49.718;11.902;2023-03-30T16:24:11;1.40;;;1.30;;
2191;SDS011;1102;49.718;11.902;2023-03-30T16:26:38;1.80;;;1.70;;
2191;SDS011;1102;49.718;11.902;2023-03-30T16:29:18;3.00;;;2.80;;
2191;SDS011;1102;49.718;11.902;2023-03-30T16:31:59;2.27;;;1.40;;
2191;SDS011;1102;49.718;11.902;2023-03-30T16:34:57;1.80;;;1.50;;
2191;SDS011;1102;49.718;11.902;2023-03-30T16:37:23;4.03;;;2.00;;
2191;SDS011;1102;49.718;11.902;2023-03-30T16:39:51;3.70;;;2.13;;
2191;SDS011;1102;49.718;11.902;2023-03-30T16:42:18;1.10;;;1.00;;
2191;SDS011;1102;49.718;11.902;2023-03-30T16:44:45;1.83;;;1.10;;
2191;SDS011;1102;49.718;11.902;2023-03-30T16:47:12;1.40;;;0.87;;
2191;SDS011;1102;49.718;11.902;2023-03-30T16:49:40;1.80;;;0.90;;
2191;SDS011;1102;49.718;11.902;2023-03-30T16:52:06;1.20;;;0.93;;
2191;SDS011;1102;49.718;11.902;2023-03-30T16:54:34;2.03;;;0.90;;
2191;SDS011;1102;49.718;11.902;2023-03-30T16:57:01;1.50;;;1.20;;
2191;SDS011;1102;49.718;11.902;2023-03-30T16:59:29;3.10;;;1.27;;
2191;SDS011;1102;49.718;11.902;2023-03-30T17:01:57;1.10;;;1.00;;
2191;SDS011;1102;49.718;11.902;2023-03-30T17:04:24;1.97;;;1.30;;
2191;SDS011;1102;49.718;11.902;2023-03-30T17:06:52;3.70;;;1.10;;
2191;SDS011;1102;49.718;11.902;2023-03-30T17:09:21;2.40;;;1.90;;
2191;SDS011;1102;49.718;11.902;2023-03-30T17:11:48;1.90;;;1.37;;
2191;SDS011;1102;49.718;11.902;2023-03-30T17:14:16;1.33;;;1.23;;
2191;SDS011;1102;49.718;11.902;2023-03-30T17:16:43;3.37;;;1.53;;
2191;SDS011;1102;49.718;11.902;2023-03-30T17:19:11;2.70;;;1.93;;
2191;SDS011;1102;49.718;11.902;2023-03-30T17:21:38;2.87;;;2.03;;
2191;SDS011;1102;49.718;11.902;2023-03-30T17:24:09;2.83;;;1.60;;
2191;SDS011;1102;49.718;11.902;2023-03-30T17:26:36;1.20;;;1.10;;
2191;SDS011;1102;49.718;11.902;2023-03-30T17:29:04;1.50;;;1.20;;
2191;SDS011;1102;49.718;11.902;2023-03-30T17:31:31;1.80;;;1.70;;
2191;SDS011;1102;49.718;11.902;2023-03-30T17:33:57;6.60;;;1.50;;
2191;SDS011;1102;49.718;11.902;2023-03-30T17:36:24;1.93;;;1.33;;
2191;SDS011;1102;49.718;11.902;2023-03-30T17:38:52;1.83;;;1.20;;
2191;SDS011;1102;49.718;11.902;2023-03-30T17:41:19;1.20;;;1.10;;
2191;SDS011;1102;49.718;11.902;2023-03-30T17:43:46;6.60;;;1.40;;
2191;SDS011;1102;49.718;11.902;2023-03-30T17:46:15;1.87;;;1.10;;
2191;SDS011;1102;49.718;11.902;2023-03-30T17:48:43;1.30;;;1.20;;
2191;SDS011;1102;49.718;11.902;2023-03-30T17:51:11;1.10;;;1.00;;
2191;SDS011;1102;49.718;11.902;2023-03-30T17:53:38;1.67;;;1.07;;
2191;SDS011;1102;49.718;11.902;2023-03-30T17:56:04;1.93;;;1.13;;
2191;SDS011;1102;49.718;11.902;2023-03-30T17:58:33;3.30;;;1.33;;
2191;SDS011;1102;49.718;11.902;2023-03-30T18:01:02;4.80;;;2.83;;